AirNav   Duncan Aviation - Near you to keep you flying
 
 1359 users online  

MI14 Overflow Pad (Lower Pad) Heliport
Ann Arbor, Michigan, USA

GOING TO ANN ARBOR?


FAA INFORMATION EFFECTIVE 19 MAY 2022

Location

FAA Identifier: MI14
Lat/Long: 42-16-59.5500N 083-43-44.5300W
42-16.992500N 083-43.742167W
42.2832083,-83.7290361
(estimated)
Elevation: 780 ft. / 238 m (estimated)
Variation: 05W (1990)
Time zone: UTC -4 (UTC -5 during Standard Time)
Zip code: 48105

Heliport Operations

Heliport use: Private use, MEDICAL USE.
Activation date: 03/1993
Control tower: no
ARTCC: CLEVELAND CENTER
FSS: LANSING FLIGHT SERVICE STATION
Attendance: CONTINUOUS
Wind indicator: yes
Segmented circle: no
Lights: ACTVT PERIMETER LGTS - 130.6.
Beacon: white-green-yellow (heliport)
H24.

Heliport Communications

CTAF: 122.9
WX ASOS at ARB (4 nm S): PHONE 734-668-7173
WX ASOS at YIP (9 nm E): PHONE 734-961-6843
WX ASOS at DTW (17 nm E): PHONE 734-955-5015

Nearby radio navigation aids

VOR radial/distance  VOR name  Freq  Var
SVMr222/9.6SALEM VORTAC114.3003W
DXOr291/16.6DETROIT VOR/DME113.4006W
CRLr322/18.6CARLETON VOR/DME115.7003W

 
NDB name  Hdg/Dist  Freq  Var  ID
TECUMSEH031/16.523906WTCU - -.-. ..-
GROSSE ILE300/27.841907WRYS .-. -.-- ...
ADRIAN038/29.227806WADG .- -.. --.

Heliport Services

Runway Information

Helipad H1

Dimensions: 60 x 60 ft. / 18 x 18 m
Surface: concrete
Runway edge lights: PERI
Latitude: 42-16.992500N
Longitude: 083-43.742167W
Elevation: 780.0 ft.
Traffic pattern: leftleft

Heliport Ownership and Management from official FAA records

Ownership: Privately-owned
Owner: UNIV OF MICHIGAN MEDICAL CTR
1500 E MEDICAL CENTER DR
ANN ARBOR, MI 48109-0307
Phone 734-936-6045
Manager: DONNA ROBINSON
1500 E MEDICAL CENTER DR, BI 208 TC, BI 352 TC 5307
ANN ARBOR, MI 48109-0307
Phone 734-936-6045

Additional Remarks

FOR CD CTC DETROIT APCH AT 734-955-1404.

Instrument Procedures

There are no published instrument procedures at MI14.

Some nearby airports with instrument procedures:

KARB - Ann Arbor Municipal Airport (4 nm S)
KYIP - Willow Run Airport (9 nm E)
1D2 - Canton-Plymouth-Mettetal Airport (13 nm E)
Y47 - Oakland Southwest Airport (14 nm N)
KDTW - Detroit Metro Wayne County Airport (17 nm E)
 
Loc | Ops | Rwys | IFR | FBO | Links
Com | Nav | Svcs | Stats | Notes
Area around MI14 (Overflow Pad (Lower Pad) Heliport)
 
Road maps at: MapQuest Bing Google
 
Aerial photo
No photo
 
Sectional chart

 
Airport distance calculator
Flying to Overflow Pad (Lower Pad) Heliport? Find the distance to fly.

From to MI14

Sunrise and sunset
Times for 26-May-2022
 Local
(UTC-4)
 Zulu
(UTC)
Morning civil twilight05:3209:32
Sunrise06:0510:05
Sunset20:5900:59
Evening civil twilight21:3201:32

Current date and time
Zulu (UTC)  26-May-2022 21:14:37
Local (UTC-4)  26-May-2022 17:14:37
 
METAR
KARB 
4nm S 
734-668-7173
262101Z 23009KT 10SM SCT014 BKN021 BKN070 22/18 A2982 RMK AO2 T02220183
KYIP 
9nm E 
262053Z 19008KT 9SM -RA SCT018 BKN035 OVC075 24/19 A2983 RMK AO2 RAE1958B13E24B42 SLP095 P0001 60016 T02390189 58011
KDTW 
18nm E 
262053Z 18004KT 2SM -RA BR FEW009 BKN020 OVC040 21/19 A2984 RMK AO2 TWR VIS 3 RAE1956B25 SLP101 P0000 60008 T02060194 58007
TAF
KYIP 
9nm E 
261728Z 2618/2718 19012G20KT 6SM -SHRA SCT025 BKN035 TEMPO 2621/2624 3SM TSRA BR OVC030CB FM270100 18006KT P6SM OVC025 FM270800 20004KT 5SM BR SCT015 BKN025 FM271400 22006KT 6SM BR OVC020
KDTW 
18nm E 
261731Z 2618/2724 19012G20KT 6SM -SHRA BKN025 OVC050 TEMPO 2621/2624 3SM TSRA BR OVC030CB FM270100 18006KT P6SM OVC025 FM270800 20004KT 5SM BR SCT015 BKN025 FM271400 20006KT 6SM BR OVC020
NOTAMs
Click for the latest NOTAMs
NOTAMs are issued by the DoD/FAA and will open in a separate window not controlled by AirNav.

 

 
 

Would you like to see your business listed on this page?

 If your business provides an interesting product or service to pilots, flight crews, aircraft, or users of the Overflow Pad (Lower Pad) Heliport, you should consider listing it here.  To start the listing process, click on the button below
 
Add a business
 

Other Pages about Overflow Pad (Lower Pad) Heliport

Update a link
 
Copyright © AirNav, LLC. All rights reserved. Privacy Policy  Contact